sensor_id;sensor_type;location;lat;lon;timestamp;P1;durP1;ratioP1;P2;durP2;ratioP2
12334;SDS011;6233;51.560;9.986;2023-02-11T00:02:58;37.50;;;23.30;;
12334;SDS011;6233;51.560;9.986;2023-02-11T00:06:00;37.80;;;23.70;;
12334;SDS011;6233;51.560;9.986;2023-02-11T00:09:04;37.23;;;23.23;;
12334;SDS011;6233;51.560;9.986;2023-02-11T00:12:06;36.50;;;23.50;;
12334;SDS011;6233;51.560;9.986;2023-02-11T00:15:08;37.43;;;23.63;;
12334;SDS011;6233;51.560;9.986;2023-02-11T00:18:10;37.03;;;23.93;;
12334;SDS011;6233;51.560;9.986;2023-02-11T00:21:13;38.00;;;23.87;;
12334;SDS011;6233;51.560;9.986;2023-02-11T00:24:16;38.10;;;24.20;;
12334;SDS011;6233;51.560;9.986;2023-02-11T00:27:17;36.63;;;23.50;;
12334;SDS011;6233;51.560;9.986;2023-02-11T00:30:19;38.63;;;23.83;;
12334;SDS011;6233;51.560;9.986;2023-02-11T00:33:21;38.67;;;23.50;;
12334;SDS011;6233;51.560;9.986;2023-02-11T00:36:24;38.50;;;24.00;;
12334;SDS011;6233;51.560;9.986;2023-02-11T00:39:27;39.27;;;25.40;;
12334;SDS011;6233;51.560;9.986;2023-02-11T00:42:29;37.60;;;23.77;;
12334;SDS011;6233;51.560;9.986;2023-02-11T00:45:30;36.00;;;24.23;;
12334;SDS011;6233;51.560;9.986;2023-02-11T00:48:32;39.10;;;24.67;;
12334;SDS011;6233;51.560;9.986;2023-02-11T00:51:34;38.87;;;25.03;;
12334;SDS011;6233;51.560;9.986;2023-02-11T00:54:36;40.27;;;25.07;;
12334;SDS011;6233;51.560;9.986;2023-02-11T00:57:37;42.50;;;24.70;;
12334;SDS011;6233;51.560;9.986;2023-02-11T01:00:39;38.90;;;25.23;;
12334;SDS011;6233;51.560;9.986;2023-02-11T01:03:41;36.63;;;25.70;;
12334;SDS011;6233;51.560;9.986;2023-02-11T01:06:42;43.03;;;26.13;;
12334;SDS011;6233;51.560;9.986;2023-02-11T01:09:44;41.17;;;25.40;;
12334;SDS011;6233;51.560;9.986;2023-02-11T01:12:46;39.47;;;24.60;;
12334;SDS011;6233;51.560;9.986;2023-02-11T01:15:48;38.93;;;24.63;;
12334;SDS011;6233;51.560;9.986;2023-02-11T01:18:50;41.87;;;25.30;;
12334;SDS011;6233;51.560;9.986;2023-02-11T01:21:52;38.83;;;24.23;;
12334;SDS011;6233;51.560;9.986;2023-02-11T01:24:53;41.57;;;25.47;;
12334;SDS011;6233;51.560;9.986;2023-02-11T01:27:55;38.87;;;25.60;;
12334;SDS011;6233;51.560;9.986;2023-02-11T01:30:57;37.73;;;25.60;;
12334;SDS011;6233;51.560;9.986;2023-02-11T01:34:01;43.40;;;25.40;;
12334;SDS011;6233;51.560;9.986;2023-02-11T01:37:02;38.97;;;24.30;;
12334;SDS011;6233;51.560;9.986;2023-02-11T01:40:05;37.80;;;24.87;;
12334;SDS011;6233;51.560;9.986;2023-02-11T01:43:09;39.67;;;24.53;;
12334;SDS011;6233;51.560;9.986;2023-02-11T01:49:32;41.27;;;26.47;;
12334;SDS011;6233;51.560;9.986;2023-02-11T01:52:37;43.50;;;26.60;;
12334;SDS011;6233;51.560;9.986;2023-02-11T01:55:40;41.70;;;25.60;;
12334;SDS011;6233;51.560;9.986;2023-02-11T01:59:06;42.67;;;26.03;;
12334;SDS011;6233;51.560;9.986;2023-02-11T02:02:14;40.23;;;25.37;;
12334;SDS011;6233;51.560;9.986;2023-02-11T02:05:22;40.53;;;24.80;;
12334;SDS011;6233;51.560;9.986;2023-02-11T02:08:35;40.60;;;26.43;;
12334;SDS011;6233;51.560;9.986;2023-02-11T02:11:42;43.90;;;26.90;;
12334;SDS011;6233;51.560;9.986;2023-02-11T02:14:44;44.63;;;26.93;;
12334;SDS011;6233;51.560;9.986;2023-02-11T02:17:50;41.53;;;25.97;;
12334;SDS011;6233;51.560;9.986;2023-02-11T02:24:37;42.17;;;25.67;;
12334;SDS011;6233;51.560;9.986;2023-02-11T02:30:52;41.90;;;26.27;;
12334;SDS011;6233;51.560;9.986;2023-02-11T02:37:38;43.10;;;27.00;;
12334;SDS011;6233;51.560;9.986;2023-02-11T02:44:23;47.93;;;28.33;;
12334;SDS011;6233;51.560;9.986;2023-02-11T02:47:25;43.40;;;27.10;;
12334;SDS011;6233;51.560;9.986;2023-02-11T02:50:28;47.13;;;27.70;;
12334;SDS011;6233;51.560;9.986;2023-02-11T02:53:40;44.10;;;27.97;;
12334;SDS011;6233;51.560;9.986;2023-02-11T02:56:54;46.77;;;26.60;;
12334;SDS011;6233;51.560;9.986;2023-02-11T03:00:03;44.97;;;28.23;;
12334;SDS011;6233;51.560;9.986;2023-02-11T03:03:13;48.63;;;29.20;;
12334;SDS011;6233;51.560;9.986;2023-02-11T03:06:18;46.20;;;27.43;;
12334;SDS011;6233;51.560;9.986;2023-02-11T03:12:35;48.87;;;29.13;;
12334;SDS011;6233;51.560;9.986;2023-02-11T03:15:40;52.43;;;30.10;;
12334;SDS011;6233;51.560;9.986;2023-02-11T03:18:47;51.23;;;29.73;;
12334;SDS011;6233;51.560;9.986;2023-02-11T03:21:52;48.73;;;30.57;;
12334;SDS011;6233;51.560;9.986;2023-02-11T03:24:56;53.30;;;30.57;;
12334;SDS011;6233;51.560;9.986;2023-02-11T03:31:25;46.00;;;29.00;;
12334;SDS011;6233;51.560;9.986;2023-02-11T03:37:57;50.50;;;29.83;;
12334;SDS011;6233;51.560;9.986;2023-02-11T03:41:03;49.47;;;30.27;;
12334;SDS011;6233;51.560;9.986;2023-02-11T03:44:07;49.87;;;29.77;;
12334;SDS011;6233;51.560;9.986;2023-02-11T03:47:12;47.73;;;29.73;;
12334;SDS011;6233;51.560;9.986;2023-02-11T03:50:17;49.13;;;29.53;;
12334;SDS011;6233;51.560;9.986;2023-02-11T03:53:21;45.83;;;29.30;;
12334;SDS011;6233;51.560;9.986;2023-02-11T03:56:24;46.77;;;28.37;;
12334;SDS011;6233;51.560;9.986;2023-02-11T03:59:29;48.50;;;29.73;;
12334;SDS011;6233;51.560;9.986;2023-02-11T04:02:32;49.47;;;30.40;;
12334;SDS011;6233;51.560;9.986;2023-02-11T04:05:35;49.07;;;29.70;;
12334;SDS011;6233;51.560;9.986;2023-02-11T04:08:38;45.43;;;28.57;;
12334;SDS011;6233;51.560;9.986;2023-02-11T04:11:39;45.67;;;28.67;;
12334;SDS011;6233;51.560;9.986;2023-02-11T04:14:41;53.60;;;29.27;;
12334;SDS011;6233;51.560;9.986;2023-02-11T04:17:43;46.07;;;28.77;;
12334;SDS011;6233;51.560;9.986;2023-02-11T04:20:45;48.33;;;27.70;;
12334;SDS011;6233;51.560;9.986;2023-02-11T04:23:47;48.07;;;27.77;;
12334;SDS011;6233;51.560;9.986;2023-02-11T04:26:49;44.67;;;29.57;;
12334;SDS011;6233;51.560;9.986;2023-02-11T04:29:51;49.33;;;28.53;;
12334;SDS011;6233;51.560;9.986;2023-02-11T04:32:52;43.17;;;27.80;;
12334;SDS011;6233;51.560;9.986;2023-02-11T04:35:54;46.73;;;28.83;;
12334;SDS011;6233;51.560;9.986;2023-02-11T04:38:56;42.60;;;26.90;;
12334;SDS011;6233;51.560;9.986;2023-02-11T04:41:57;44.30;;;26.33;;
12334;SDS011;6233;51.560;9.986;2023-02-11T04:44:59;44.23;;;27.93;;
12334;SDS011;6233;51.560;9.986;2023-02-11T04:48:02;45.93;;;27.53;;
12334;SDS011;6233;51.560;9.986;2023-02-11T04:51:04;44.60;;;26.73;;
12334;SDS011;6233;51.560;9.986;2023-02-11T04:54:06;43.30;;;26.70;;
12334;SDS011;6233;51.560;9.986;2023-02-11T04:57:08;44.53;;;26.90;;
12334;SDS011;6233;51.560;9.986;2023-02-11T05:00:10;40.50;;;27.03;;
12334;SDS011;6233;51.560;9.986;2023-02-11T05:03:12;46.77;;;27.67;;
12334;SDS011;6233;51.560;9.986;2023-02-11T05:06:14;47.10;;;27.13;;
12334;SDS011;6233;51.560;9.986;2023-02-11T05:09:16;44.90;;;27.10;;
12334;SDS011;6233;51.560;9.986;2023-02-11T05:12:18;41.47;;;26.20;;
12334;SDS011;6233;51.560;9.986;2023-02-11T05:15:20;43.63;;;26.03;;
12334;SDS011;6233;51.560;9.986;2023-02-11T05:18:22;44.43;;;26.97;;
12334;SDS011;6233;51.560;9.986;2023-02-11T05:21:23;42.87;;;26.57;;
12334;SDS011;6233;51.560;9.986;2023-02-11T05:24:25;43.80;;;27.23;;
12334;SDS011;6233;51.560;9.986;2023-02-11T05:27:27;38.90;;;24.23;;
12334;SDS011;6233;51.560;9.986;2023-02-11T05:30:29;45.40;;;27.90;;
12334;SDS011;6233;51.560;9.986;2023-02-11T05:33:31;44.47;;;27.23;;
12334;SDS011;6233;51.560;9.986;2023-02-11T05:36:33;44.40;;;27.63;;
12334;SDS011;6233;51.560;9.986;2023-02-11T05:39:35;45.67;;;27.43;;
12334;SDS011;6233;51.560;9.986;2023-02-11T05:42:36;49.30;;;29.50;;
12334;SDS011;6233;51.560;9.986;2023-02-11T05:45:38;50.40;;;30.93;;
12334;SDS011;6233;51.560;9.986;2023-02-11T05:48:40;46.90;;;28.83;;
12334;SDS011;6233;51.560;9.986;2023-02-11T05:51:41;49.23;;;28.80;;
12334;SDS011;6233;51.560;9.986;2023-02-11T05:54:43;46.13;;;28.40;;
12334;SDS011;6233;51.560;9.986;2023-02-11T05:57:45;48.83;;;30.23;;
12334;SDS011;6233;51.560;9.986;2023-02-11T06:00:46;55.43;;;32.00;;
12334;SDS011;6233;51.560;9.986;2023-02-11T06:03:48;46.57;;;30.03;;
12334;SDS011;6233;51.560;9.986;2023-02-11T06:06:51;51.37;;;30.50;;
12334;SDS011;6233;51.560;9.986;2023-02-11T06:09:53;52.40;;;32.50;;
12334;SDS011;6233;51.560;9.986;2023-02-11T06:12:54;51.53;;;32.20;;
12334;SDS011;6233;51.560;9.986;2023-02-11T06:15:59;54.13;;;32.00;;
12334;SDS011;6233;51.560;9.986;2023-02-11T06:19:02;50.53;;;31.37;;
12334;SDS011;6233;51.560;9.986;2023-02-11T06:22:04;55.57;;;31.80;;
12334;SDS011;6233;51.560;9.986;2023-02-11T06:25:05;54.10;;;32.10;;
12334;SDS011;6233;51.560;9.986;2023-02-11T06:28:07;55.77;;;32.03;;
12334;SDS011;6233;51.560;9.986;2023-02-11T06:31:10;54.73;;;31.03;;
12334;SDS011;6233;51.560;9.986;2023-02-11T06:34:12;54.27;;;33.13;;
12334;SDS011;6233;51.560;9.986;2023-02-11T06:37:14;52.97;;;31.23;;
12334;SDS011;6233;51.560;9.986;2023-02-11T06:40:16;54.47;;;31.20;;
12334;SDS011;6233;51.560;9.986;2023-02-11T06:43:18;55.43;;;31.43;;
12334;SDS011;6233;51.560;9.986;2023-02-11T06:46:19;53.93;;;33.10;;
12334;SDS011;6233;51.560;9.986;2023-02-11T06:49:21;48.90;;;29.07;;
12334;SDS011;6233;51.560;9.986;2023-02-11T06:52:23;53.97;;;33.63;;
12334;SDS011;6233;51.560;9.986;2023-02-11T06:55:24;62.47;;;35.30;;
12334;SDS011;6233;51.560;9.986;2023-02-11T06:58:26;53.83;;;32.20;;
12334;SDS011;6233;51.560;9.986;2023-02-11T07:01:28;54.10;;;32.17;;
12334;SDS011;6233;51.560;9.986;2023-02-11T07:04:30;53.60;;;32.00;;
12334;SDS011;6233;51.560;9.986;2023-02-11T07:07:31;57.00;;;34.00;;
12334;SDS011;6233;51.560;9.986;2023-02-11T07:10:34;59.57;;;35.17;;
12334;SDS011;6233;51.560;9.986;2023-02-11T07:13:36;68.40;;;36.10;;
12334;SDS011;6233;51.560;9.986;2023-02-11T07:16:38;59.93;;;33.07;;
12334;SDS011;6233;51.560;9.986;2023-02-11T07:19:40;58.03;;;33.93;;
12334;SDS011;6233;51.560;9.986;2023-02-11T07:22:41;59.10;;;34.40;;
12334;SDS011;6233;51.560;9.986;2023-02-11T07:25:43;64.97;;;36.63;;
12334;SDS011;6233;51.560;9.986;2023-02-11T07:28:45;65.40;;;36.73;;
12334;SDS011;6233;51.560;9.986;2023-02-11T07:31:46;60.77;;;36.40;;
12334;SDS011;6233;51.560;9.986;2023-02-11T07:34:49;67.07;;;35.80;;
12334;SDS011;6233;51.560;9.986;2023-02-11T07:37:51;66.80;;;35.97;;
12334;SDS011;6233;51.560;9.986;2023-02-11T07:40:52;63.03;;;34.10;;
12334;SDS011;6233;51.560;9.986;2023-02-11T07:43:54;59.30;;;35.77;;
12334;SDS011;6233;51.560;9.986;2023-02-11T07:46:56;64.00;;;36.13;;
12334;SDS011;6233;51.560;9.986;2023-02-11T07:49:58;62.97;;;36.93;;
12334;SDS011;6233;51.560;9.986;2023-02-11T07:52:59;65.40;;;36.50;;
12334;SDS011;6233;51.560;9.986;2023-02-11T07:56:02;65.90;;;37.50;;
12334;SDS011;6233;51.560;9.986;2023-02-11T07:59:05;62.67;;;34.93;;
12334;SDS011;6233;51.560;9.986;2023-02-11T08:02:07;59.27;;;34.93;;
12334;SDS011;6233;51.560;9.986;2023-02-11T08:05:09;64.90;;;36.27;;
12334;SDS011;6233;51.560;9.986;2023-02-11T08:08:11;62.60;;;36.63;;
12334;SDS011;6233;51.560;9.986;2023-02-11T08:11:17;58.73;;;34.00;;
12334;SDS011;6233;51.560;9.986;2023-02-11T08:14:20;55.67;;;32.57;;
12334;SDS011;6233;51.560;9.986;2023-02-11T08:17:22;55.70;;;33.43;;
12334;SDS011;6233;51.560;9.986;2023-02-11T08:20:24;53.37;;;33.83;;
12334;SDS011;6233;51.560;9.986;2023-02-11T08:23:26;58.33;;;33.50;;
12334;SDS011;6233;51.560;9.986;2023-02-11T08:26:28;56.57;;;31.80;;
12334;SDS011;6233;51.560;9.986;2023-02-11T08:29:31;55.87;;;33.57;;
12334;SDS011;6233;51.560;9.986;2023-02-11T08:32:33;59.37;;;33.47;;
12334;SDS011;6233;51.560;9.986;2023-02-11T08:35:35;60.57;;;34.17;;
12334;SDS011;6233;51.560;9.986;2023-02-11T08:38:40;53.40;;;32.10;;
12334;SDS011;6233;51.560;9.986;2023-02-11T08:41:41;52.03;;;31.70;;
12334;SDS011;6233;51.560;9.986;2023-02-11T08:44:43;51.17;;;32.70;;
12334;SDS011;6233;51.560;9.986;2023-02-11T08:47:45;54.53;;;33.77;;
12334;SDS011;6233;51.560;9.986;2023-02-11T08:50:47;50.97;;;31.73;;
12334;SDS011;6233;51.560;9.986;2023-02-11T08:53:49;53.00;;;31.67;;
12334;SDS011;6233;51.560;9.986;2023-02-11T08:56:51;50.93;;;30.83;;
12334;SDS011;6233;51.560;9.986;2023-02-11T08:59:53;49.80;;;31.10;;
12334;SDS011;6233;51.560;9.986;2023-02-11T09:02:55;52.93;;;31.77;;
12334;SDS011;6233;51.560;9.986;2023-02-11T09:05:56;57.17;;;33.10;;
12334;SDS011;6233;51.560;9.986;2023-02-11T09:08:58;49.43;;;30.07;;
12334;SDS011;6233;51.560;9.986;2023-02-11T09:12:00;49.97;;;30.53;;
12334;SDS011;6233;51.560;9.986;2023-02-11T09:15:02;52.30;;;30.17;;
12334;SDS011;6233;51.560;9.986;2023-02-11T09:18:03;48.00;;;29.50;;
12334;SDS011;6233;51.560;9.986;2023-02-11T09:21:06;48.67;;;29.73;;
12334;SDS011;6233;51.560;9.986;2023-02-11T09:24:09;48.80;;;29.47;;
12334;SDS011;6233;51.560;9.986;2023-02-11T09:27:11;45.73;;;28.23;;
12334;SDS011;6233;51.560;9.986;2023-02-11T09:30:13;46.83;;;29.47;;
12334;SDS011;6233;51.560;9.986;2023-02-11T09:33:15;48.70;;;29.90;;
12334;SDS011;6233;51.560;9.986;2023-02-11T09:36:17;44.43;;;28.70;;
12334;SDS011;6233;51.560;9.986;2023-02-11T09:39:21;45.20;;;28.77;;
12334;SDS011;6233;51.560;9.986;2023-02-11T09:42:27;51.33;;;29.57;;
12334;SDS011;6233;51.560;9.986;2023-02-11T09:45:48;44.87;;;26.97;;
12334;SDS011;6233;51.560;9.986;2023-02-11T09:48:53;45.37;;;26.97;;
12334;SDS011;6233;51.560;9.986;2023-02-11T09:55:45;44.07;;;27.83;;
12334;SDS011;6233;51.560;9.986;2023-02-11T09:58:48;42.13;;;28.00;;
12334;SDS011;6233;51.560;9.986;2023-02-11T10:01:52;44.47;;;27.37;;
12334;SDS011;6233;51.560;9.986;2023-02-11T10:08:56;44.27;;;26.40;;
12334;SDS011;6233;51.560;9.986;2023-02-11T10:15:19;41.73;;;26.40;;
12334;SDS011;6233;51.560;9.986;2023-02-11T10:22:15;40.50;;;25.47;;
12334;SDS011;6233;51.560;9.986;2023-02-11T10:25:24;41.20;;;25.80;;
12334;SDS011;6233;51.560;9.986;2023-02-11T10:28:28;39.23;;;24.63;;
12334;SDS011;6233;51.560;9.986;2023-02-11T10:31:35;40.10;;;25.73;;
12334;SDS011;6233;51.560;9.986;2023-02-11T10:34:40;40.73;;;24.70;;
12334;SDS011;6233;51.560;9.986;2023-02-11T10:37:43;37.80;;;24.37;;
12334;SDS011;6233;51.560;9.986;2023-02-11T10:40:45;34.80;;;24.33;;
12334;SDS011;6233;51.560;9.986;2023-02-11T10:43:47;40.73;;;25.53;;
12334;SDS011;6233;51.560;9.986;2023-02-11T10:46:51;34.53;;;23.77;;
12334;SDS011;6233;51.560;9.986;2023-02-11T10:49:54;35.67;;;22.43;;
12334;SDS011;6233;51.560;9.986;2023-02-11T10:53:16;38.83;;;24.33;;
12334;SDS011;6233;51.560;9.986;2023-02-11T10:56:24;34.03;;;23.00;;
12334;SDS011;6233;51.560;9.986;2023-02-11T10:59:34;37.00;;;24.63;;
12334;SDS011;6233;51.560;9.986;2023-02-11T11:02:41;35.30;;;23.53;;
12334;SDS011;6233;51.560;9.986;2023-02-11T11:05:48;36.43;;;23.60;;
12334;SDS011;6233;51.560;9.986;2023-02-11T11:08:51;35.70;;;23.30;;
12334;SDS011;6233;51.560;9.986;2023-02-11T11:11:53;38.93;;;24.63;;
12334;SDS011;6233;51.560;9.986;2023-02-11T11:14:55;37.80;;;24.73;;
12334;SDS011;6233;51.560;9.986;2023-02-11T11:18:09;36.27;;;23.07;;
12334;SDS011;6233;51.560;9.986;2023-02-11T11:21:25;33.43;;;23.13;;
12334;SDS011;6233;51.560;9.986;2023-02-11T11:24:42;36.57;;;23.13;;
12334;SDS011;6233;51.560;9.986;2023-02-11T11:27:47;34.27;;;23.37;;
12334;SDS011;6233;51.560;9.986;2023-02-11T11:30:51;35.17;;;22.73;;
12334;SDS011;6233;51.560;9.986;2023-02-11T11:33:55;34.63;;;22.80;;
12334;SDS011;6233;51.560;9.986;2023-02-11T11:37:00;35.33;;;23.67;;
12334;SDS011;6233;51.560;9.986;2023-02-11T11:43:16;34.80;;;23.20;;
12334;SDS011;6233;51.560;9.986;2023-02-11T11:46:41;39.23;;;25.00;;
12334;SDS011;6233;51.560;9.986;2023-02-11T11:53:12;35.93;;;24.17;;
12334;SDS011;6233;51.560;9.986;2023-02-11T11:56:56;37.10;;;24.20;;
12334;SDS011;6233;51.560;9.986;2023-02-11T12:00:02;37.13;;;23.93;;
12334;SDS011;6233;51.560;9.986;2023-02-11T12:03:16;37.13;;;25.07;;
12334;SDS011;6233;51.560;9.986;2023-02-11T12:06:25;39.93;;;26.03;;
12334;SDS011;6233;51.560;9.986;2023-02-11T12:13:06;40.93;;;26.70;;
12334;SDS011;6233;51.560;9.986;2023-02-11T12:16:40;39.23;;;24.90;;
12334;SDS011;6233;51.560;9.986;2023-02-11T12:19:47;37.60;;;25.10;;
12334;SDS011;6233;51.560;9.986;2023-02-11T12:39:23;41.60;;;27.07;;
12334;SDS011;6233;51.560;9.986;2023-02-11T13:00:18;38.30;;;26.10;;
12334;SDS011;6233;51.560;9.986;2023-02-11T13:03:29;40.30;;;25.97;;
12334;SDS011;6233;51.560;9.986;2023-02-11T13:06:44;38.60;;;25.13;;
12334;SDS011;6233;51.560;9.986;2023-02-11T13:10:04;40.50;;;24.13;;
12334;SDS011;6233;51.560;9.986;2023-02-11T13:13:25;38.07;;;22.73;;
12334;SDS011;6233;51.560;9.986;2023-02-11T13:19:40;45.57;;;25.50;;
12334;SDS011;6233;51.560;9.986;2023-02-11T13:23:36;48.30;;;24.17;;
12334;SDS011;6233;51.560;9.986;2023-02-11T13:26:18;43.70;;;24.50;;
12334;SDS011;6233;51.560;9.986;2023-02-11T13:39:01;47.63;;;25.07;;
12334;SDS011;6233;51.560;9.986;2023-02-11T13:42:10;46.17;;;25.10;;
12334;SDS011;6233;51.560;9.986;2023-02-11T13:45:35;52.37;;;26.53;;
12334;SDS011;6233;51.560;9.986;2023-02-11T13:48:45;47.77;;;24.77;;
12334;SDS011;6233;51.560;9.986;2023-02-11T13:51:49;42.53;;;24.43;;
12334;SDS011;6233;51.560;9.986;2023-02-11T13:54:53;46.00;;;25.83;;
12334;SDS011;6233;51.560;9.986;2023-02-11T14:01:08;48.37;;;26.77;;
12334;SDS011;6233;51.560;9.986;2023-02-11T14:04:18;45.93;;;25.67;;
12334;SDS011;6233;51.560;9.986;2023-02-11T14:14:57;48.33;;;26.70;;
12334;SDS011;6233;51.560;9.986;2023-02-11T14:18:56;50.87;;;27.50;;
12334;SDS011;6233;51.560;9.986;2023-02-11T14:21:36;51.63;;;27.30;;
12334;SDS011;6233;51.560;9.986;2023-02-11T14:27:47;52.33;;;27.27;;
12334;SDS011;6233;51.560;9.986;2023-02-11T14:30:57;51.87;;;28.07;;
12334;SDS011;6233;51.560;9.986;2023-02-11T14:34:48;54.63;;;27.67;;
12334;SDS011;6233;51.560;9.986;2023-02-11T14:38:05;54.90;;;27.80;;
12334;SDS011;6233;51.560;9.986;2023-02-11T14:41:28;50.97;;;26.50;;
12334;SDS011;6233;51.560;9.986;2023-02-11T14:44:34;53.03;;;28.03;;
12334;SDS011;6233;51.560;9.986;2023-02-11T14:47:43;53.00;;;28.83;;
12334;SDS011;6233;51.560;9.986;2023-02-11T14:50:53;56.93;;;28.37;;
12334;SDS011;6233;51.560;9.986;2023-02-11T14:54:13;51.37;;;28.37;;
12334;SDS011;6233;51.560;9.986;2023-02-11T14:57:22;51.87;;;27.03;;
12334;SDS011;6233;51.560;9.986;2023-02-11T15:00:24;56.73;;;27.90;;
12334;SDS011;6233;51.560;9.986;2023-02-11T15:06:38;54.87;;;28.70;;
12334;SDS011;6233;51.560;9.986;2023-02-11T15:09:43;60.10;;;29.03;;
12334;SDS011;6233;51.560;9.986;2023-02-11T15:12:50;55.77;;;28.27;;
12334;SDS011;6233;51.560;9.986;2023-02-11T15:15:54;57.93;;;30.40;;
12334;SDS011;6233;51.560;9.986;2023-02-11T15:22:27;62.23;;;29.57;;
12334;SDS011;6233;51.560;9.986;2023-02-11T15:25:33;59.60;;;29.80;;
12334;SDS011;6233;51.560;9.986;2023-02-11T15:28:44;61.33;;;29.27;;
12334;SDS011;6233;51.560;9.986;2023-02-11T15:32:02;62.83;;;31.67;;
12334;SDS011;6233;51.560;9.986;2023-02-11T15:35:06;59.77;;;30.43;;
12334;SDS011;6233;51.560;9.986;2023-02-11T15:38:11;65.00;;;30.13;;
12334;SDS011;6233;51.560;9.986;2023-02-11T15:41:33;57.83;;;29.90;;
12334;SDS011;6233;51.560;9.986;2023-02-11T15:44:38;55.70;;;28.83;;
12334;SDS011;6233;51.560;9.986;2023-02-11T15:47:45;65.97;;;31.00;;
12334;SDS011;6233;51.560;9.986;2023-02-11T15:50:54;59.27;;;30.27;;
12334;SDS011;6233;51.560;9.986;2023-02-11T15:54:01;62.40;;;29.87;;
12334;SDS011;6233;51.560;9.986;2023-02-11T15:57:26;60.73;;;29.13;;
12334;SDS011;6233;51.560;9.986;2023-02-11T16:00:34;63.63;;;30.97;;
12334;SDS011;6233;51.560;9.986;2023-02-11T16:03:39;65.07;;;31.33;;
12334;SDS011;6233;51.560;9.986;2023-02-11T16:06:42;60.17;;;31.03;;
12334;SDS011;6233;51.560;9.986;2023-02-11T16:09:55;70.07;;;31.30;;
12334;SDS011;6233;51.560;9.986;2023-02-11T16:16:15;69.10;;;30.10;;
12334;SDS011;6233;51.560;9.986;2023-02-11T16:19:26;62.67;;;31.23;;
12334;SDS011;6233;51.560;9.986;2023-02-11T16:22:29;64.97;;;32.73;;
12334;SDS011;6233;51.560;9.986;2023-02-11T16:25:35;62.90;;;31.20;;
12334;SDS011;6233;51.560;9.986;2023-02-11T16:28:38;67.80;;;31.97;;
12334;SDS011;6233;51.560;9.986;2023-02-11T16:31:44;69.63;;;32.00;;
12334;SDS011;6233;51.560;9.986;2023-02-11T16:34:48;61.73;;;31.57;;
12334;SDS011;6233;51.560;9.986;2023-02-11T16:37:50;70.63;;;33.43;;
12334;SDS011;6233;51.560;9.986;2023-02-11T16:40:55;71.40;;;34.50;;
12334;SDS011;6233;51.560;9.986;2023-02-11T16:43:57;73.73;;;34.43;;
12334;SDS011;6233;51.560;9.986;2023-02-11T16:47:01;76.83;;;33.67;;
12334;SDS011;6233;51.560;9.986;2023-02-11T16:50:04;70.53;;;32.97;;
12334;SDS011;6233;51.560;9.986;2023-02-11T16:53:09;70.87;;;32.83;;
12334;SDS011;6233;51.560;9.986;2023-02-11T16:56:13;73.77;;;34.70;;
12334;SDS011;6233;51.560;9.986;2023-02-11T16:59:16;69.33;;;34.37;;
12334;SDS011;6233;51.560;9.986;2023-02-11T17:02:22;79.20;;;35.30;;
12334;SDS011;6233;51.560;9.986;2023-02-11T17:05:30;80.40;;;34.70;;
12334;SDS011;6233;51.560;9.986;2023-02-11T17:08:49;78.23;;;37.73;;
12334;SDS011;6233;51.560;9.986;2023-02-11T17:11:51;76.87;;;36.27;;
12334;SDS011;6233;51.560;9.986;2023-02-11T17:14:53;81.37;;;36.30;;
12334;SDS011;6233;51.560;9.986;2023-02-11T17:17:55;89.17;;;38.33;;
12334;SDS011;6233;51.560;9.986;2023-02-11T17:20:56;95.67;;;39.10;;
12334;SDS011;6233;51.560;9.986;2023-02-11T17:23:58;88.67;;;38.33;;
12334;SDS011;6233;51.560;9.986;2023-02-11T17:27:00;92.57;;;40.47;;
12334;SDS011;6233;51.560;9.986;2023-02-11T17:30:02;89.70;;;38.70;;
12334;SDS011;6233;51.560;9.986;2023-02-11T17:33:05;87.10;;;38.83;;
12334;SDS011;6233;51.560;9.986;2023-02-11T17:36:07;97.80;;;41.57;;
12334;SDS011;6233;51.560;9.986;2023-02-11T17:39:10;76.80;;;38.47;;
12334;SDS011;6233;51.560;9.986;2023-02-11T17:42:11;90.83;;;40.13;;
12334;SDS011;6233;51.560;9.986;2023-02-11T17:45:19;87.37;;;40.13;;
12334;SDS011;6233;51.560;9.986;2023-02-11T17:48:23;93.00;;;41.47;;
12334;SDS011;6233;51.560;9.986;2023-02-11T17:51:26;95.63;;;42.63;;
12334;SDS011;6233;51.560;9.986;2023-02-11T17:54:36;93.90;;;40.47;;
12334;SDS011;6233;51.560;9.986;2023-02-11T17:57:38;94.27;;;41.30;;
12334;SDS011;6233;51.560;9.986;2023-02-11T18:00:40;97.60;;;40.80;;
12334;SDS011;6233;51.560;9.986;2023-02-11T18:03:46;88.50;;;40.07;;
12334;SDS011;6233;51.560;9.986;2023-02-11T18:06:48;87.63;;;41.90;;
12334;SDS011;6233;51.560;9.986;2023-02-11T18:09:50;95.53;;;41.20;;
12334;SDS011;6233;51.560;9.986;2023-02-11T18:12:52;101.50;;;42.03;;
12334;SDS011;6233;51.560;9.986;2023-02-11T18:15:54;100.07;;;41.60;;
12334;SDS011;6233;51.560;9.986;2023-02-11T18:19:01;99.87;;;42.27;;
12334;SDS011;6233;51.560;9.986;2023-02-11T18:22:04;102.40;;;43.87;;
12334;SDS011;6233;51.560;9.986;2023-02-11T18:25:06;93.23;;;41.97;;
12334;SDS011;6233;51.560;9.986;2023-02-11T18:28:17;98.23;;;42.67;;
12334;SDS011;6233;51.560;9.986;2023-02-11T18:31:19;95.97;;;41.40;;
12334;SDS011;6233;51.560;9.986;2023-02-11T18:34:25;95.93;;;42.13;;
12334;SDS011;6233;51.560;9.986;2023-02-11T18:37:26;96.70;;;43.13;;
12334;SDS011;6233;51.560;9.986;2023-02-11T18:40:28;96.43;;;44.30;;
12334;SDS011;6233;51.560;9.986;2023-02-11T18:43:30;100.20;;;43.77;;
12334;SDS011;6233;51.560;9.986;2023-02-11T18:46:33;102.00;;;42.80;;
12334;SDS011;6233;51.560;9.986;2023-02-11T18:49:35;96.93;;;41.97;;
12334;SDS011;6233;51.560;9.986;2023-02-11T18:52:37;94.97;;;42.33;;
12334;SDS011;6233;51.560;9.986;2023-02-11T18:55:39;83.83;;;40.07;;
12334;SDS011;6233;51.560;9.986;2023-02-11T18:58:42;94.00;;;42.57;;
12334;SDS011;6233;51.560;9.986;2023-02-11T19:01:44;94.40;;;42.70;;
12334;SDS011;6233;51.560;9.986;2023-02-11T19:04:47;91.00;;;41.80;;
12334;SDS011;6233;51.560;9.986;2023-02-11T19:07:48;93.30;;;42.70;;
12334;SDS011;6233;51.560;9.986;2023-02-11T19:10:50;94.93;;;42.10;;
12334;SDS011;6233;51.560;9.986;2023-02-11T19:13:52;95.43;;;42.33;;
12334;SDS011;6233;51.560;9.986;2023-02-11T19:16:54;96.83;;;44.00;;
12334;SDS011;6233;51.560;9.986;2023-02-11T19:19:58;104.60;;;45.23;;
12334;SDS011;6233;51.560;9.986;2023-02-11T19:23:00;95.30;;;43.87;;
12334;SDS011;6233;51.560;9.986;2023-02-11T19:26:02;98.27;;;44.67;;
12334;SDS011;6233;51.560;9.986;2023-02-11T19:29:07;101.33;;;43.70;;
12334;SDS011;6233;51.560;9.986;2023-02-11T19:32:09;103.00;;;44.07;;
12334;SDS011;6233;51.560;9.986;2023-02-11T19:35:11;105.37;;;45.63;;
12334;SDS011;6233;51.560;9.986;2023-02-11T19:38:12;97.63;;;43.73;;
12334;SDS011;6233;51.560;9.986;2023-02-11T19:41:17;94.90;;;44.53;;
12334;SDS011;6233;51.560;9.986;2023-02-11T19:44:22;101.13;;;44.30;;
12334;SDS011;6233;51.560;9.986;2023-02-11T19:47:24;102.10;;;45.47;;
12334;SDS011;6233;51.560;9.986;2023-02-11T19:50:27;104.63;;;47.07;;
12334;SDS011;6233;51.560;9.986;2023-02-11T19:53:29;106.23;;;46.93;;
12334;SDS011;6233;51.560;9.986;2023-02-11T19:56:31;109.10;;;47.83;;
12334;SDS011;6233;51.560;9.986;2023-02-11T19:59:33;102.43;;;47.43;;
12334;SDS011;6233;51.560;9.986;2023-02-11T20:02:35;110.67;;;48.00;;
12334;SDS011;6233;51.560;9.986;2023-02-11T20:05:38;109.70;;;48.50;;
12334;SDS011;6233;51.560;9.986;2023-02-11T20:08:40;109.33;;;47.20;;
12334;SDS011;6233;51.560;9.986;2023-02-11T20:11:42;107.30;;;45.33;;
12334;SDS011;6233;51.560;9.986;2023-02-11T20:14:44;113.23;;;48.97;;
12334;SDS011;6233;51.560;9.986;2023-02-11T20:17:45;113.80;;;47.23;;
12334;SDS011;6233;51.560;9.986;2023-02-11T20:20:47;111.47;;;48.27;;